sensor_id;sensor_type;location;lat;lon;timestamp;temperature;humidity
80495;DHT22;69819;48.798;11.770;2023-05-18T00:02:04;9.10;52.90
80495;DHT22;69819;48.798;11.770;2023-05-18T00:04:35;9.10;53.00
80495;DHT22;69819;48.798;11.770;2023-05-18T00:07:02;9.00;53.30
80495;DHT22;69819;48.798;11.770;2023-05-18T00:09:33;9.00;53.20
80495;DHT22;69819;48.798;11.770;2023-05-18T00:12:01;9.00;53.30
80495;DHT22;69819;48.798;11.770;2023-05-18T00:14:29;9.00;53.00
80495;DHT22;69819;48.798;11.770;2023-05-18T00:16:55;9.00;53.00
80495;DHT22;69819;48.798;11.770;2023-05-18T00:19:22;9.00;53.10
80495;DHT22;69819;48.798;11.770;2023-05-18T00:21:50;8.90;53.00
80495;DHT22;69819;48.798;11.770;2023-05-18T00:24:17;8.90;53.00
80495;DHT22;69819;48.798;11.770;2023-05-18T00:26:45;9.00;52.90
80495;DHT22;69819;48.798;11.770;2023-05-18T00:29:12;9.00;53.10
80495;DHT22;69819;48.798;11.770;2023-05-18T00:31:38;8.90;52.80
80495;DHT22;69819;48.798;11.770;2023-05-18T00:36:31;8.80;53.00
80495;DHT22;69819;48.798;11.770;2023-05-18T00:38:58;8.80;53.10
80495;DHT22;69819;48.798;11.770;2023-05-18T00:41:25;8.80;53.20
80495;DHT22;69819;48.798;11.770;2023-05-18T00:43:52;8.80;53.10
80495;DHT22;69819;48.798;11.770;2023-05-18T00:46:19;8.70;53.10
80495;DHT22;69819;48.798;11.770;2023-05-18T00:48:46;8.70;53.10
80495;DHT22;69819;48.798;11.770;2023-05-18T00:51:14;8.70;53.20
80495;DHT22;69819;48.798;11.770;2023-05-18T00:53:41;8.70;53.30
80495;DHT22;69819;48.798;11.770;2023-05-18T00:56:09;8.60;53.20
80495;DHT22;69819;48.798;11.770;2023-05-18T00:58:35;8.60;53.20
80495;DHT22;69819;48.798;11.770;2023-05-18T01:01:06;8.50;53.20
80495;DHT22;69819;48.798;11.770;2023-05-18T01:03:34;8.50;53.20
80495;DHT22;69819;48.798;11.770;2023-05-18T01:06:06;8.50;53.40
80495;DHT22;69819;48.798;11.770;2023-05-18T01:08:35;8.50;53.70
80495;DHT22;69819;48.798;11.770;2023-05-18T01:14:42;8.50;54.00
80495;DHT22;69819;48.798;11.770;2023-05-18T01:17:33;8.50;53.50
80495;DHT22;69819;48.798;11.770;2023-05-18T01:23:33;8.50;53.40
80495;DHT22;69819;48.798;11.770;2023-05-18T01:26:33;8.50;53.60
80495;DHT22;69819;48.798;11.770;2023-05-18T01:29:08;8.50;53.80
80495;DHT22;69819;48.798;11.770;2023-05-18T01:31:36;8.50;53.50
80495;DHT22;69819;48.798;11.770;2023-05-18T01:34:02;8.50;53.20
80495;DHT22;69819;48.798;11.770;2023-05-18T01:36:27;8.50;53.20
80495;DHT22;69819;48.798;11.770;2023-05-18T01:38:54;8.50;53.20
80495;DHT22;69819;48.798;11.770;2023-05-18T01:41:23;8.50;53.30
80495;DHT22;69819;48.798;11.770;2023-05-18T01:44:18;8.50;53.50
80495;DHT22;69819;48.798;11.770;2023-05-18T01:46:51;8.50;53.90
80495;DHT22;69819;48.798;11.770;2023-05-18T01:51:53;8.50;53.20
80495;DHT22;69819;48.798;11.770;2023-05-18T01:54:21;8.50;53.20
80495;DHT22;69819;48.798;11.770;2023-05-18T01:56:50;8.50;53.80
80495;DHT22;69819;48.798;11.770;2023-05-18T01:59:18;8.50;53.40
80495;DHT22;69819;48.798;11.770;2023-05-18T02:01:44;8.50;53.30
80495;DHT22;69819;48.798;11.770;2023-05-18T02:04:10;8.50;53.80
80495;DHT22;69819;48.798;11.770;2023-05-18T02:06:36;8.60;53.30
80495;DHT22;69819;48.798;11.770;2023-05-18T02:09:03;8.50;53.40
80495;DHT22;69819;48.798;11.770;2023-05-18T02:11:29;8.50;53.50
80495;DHT22;69819;48.798;11.770;2023-05-18T02:13:56;8.50;53.50
80495;DHT22;69819;48.798;11.770;2023-05-18T02:16:21;8.50;53.40
80495;DHT22;69819;48.798;11.770;2023-05-18T02:18:47;8.50;53.50
80495;DHT22;69819;48.798;11.770;2023-05-18T02:21:13;8.50;53.30
80495;DHT22;69819;48.798;11.770;2023-05-18T02:23:40;8.50;53.50
80495;DHT22;69819;48.798;11.770;2023-05-18T02:26:06;8.40;53.50
80495;DHT22;69819;48.798;11.770;2023-05-18T02:28:32;8.40;53.40
80495;DHT22;69819;48.798;11.770;2023-05-18T02:31:08;8.40;53.40
80495;DHT22;69819;48.798;11.770;2023-05-18T02:33:38;8.50;53.90
80495;DHT22;69819;48.798;11.770;2023-05-18T02:36:09;8.40;53.50
80495;DHT22;69819;48.798;11.770;2023-05-18T02:38:38;8.40;53.90
80495;DHT22;69819;48.798;11.770;2023-05-18T02:41:07;8.40;53.40
80495;DHT22;69819;48.798;11.770;2023-05-18T02:43:33;8.40;53.40
80495;DHT22;69819;48.798;11.770;2023-05-18T02:45:59;8.40;53.50
80495;DHT22;69819;48.798;11.770;2023-05-18T02:48:25;8.40;53.70
80495;DHT22;69819;48.798;11.770;2023-05-18T02:50:52;8.40;53.60
80495;DHT22;69819;48.798;11.770;2023-05-18T02:53:18;8.30;53.50
80495;DHT22;69819;48.798;11.770;2023-05-18T02:55:44;8.40;53.70
80495;DHT22;69819;48.798;11.770;2023-05-18T02:58:11;8.40;53.60
80495;DHT22;69819;48.798;11.770;2023-05-18T03:00:38;8.40;53.80
80495;DHT22;69819;48.798;11.770;2023-05-18T03:03:04;8.40;53.60
80495;DHT22;69819;48.798;11.770;2023-05-18T03:05:30;8.40;54.20
80495;DHT22;69819;48.798;11.770;2023-05-18T03:07:56;8.40;53.50
80495;DHT22;69819;48.798;11.770;2023-05-18T03:10:23;8.40;53.40
80495;DHT22;69819;48.798;11.770;2023-05-18T03:12:48;8.30;53.40
80495;DHT22;69819;48.798;11.770;2023-05-18T03:15:14;8.30;53.20
80495;DHT22;69819;48.798;11.770;2023-05-18T03:17:43;8.30;53.30
80495;DHT22;69819;48.798;11.770;2023-05-18T03:20:10;8.30;53.30
80495;DHT22;69819;48.798;11.770;2023-05-18T03:22:38;8.30;53.50
80495;DHT22;69819;48.798;11.770;2023-05-18T03:25:05;8.20;53.50
80495;DHT22;69819;48.798;11.770;2023-05-18T03:27:33;8.20;53.60
80495;DHT22;69819;48.798;11.770;2023-05-18T03:29:59;8.20;53.60
80495;DHT22;69819;48.798;11.770;2023-05-18T03:32:25;8.20;53.70
80495;DHT22;69819;48.798;11.770;2023-05-18T03:34:53;8.20;53.60
80495;DHT22;69819;48.798;11.770;2023-05-18T03:37:19;8.20;53.70
80495;DHT22;69819;48.798;11.770;2023-05-18T03:39:45;8.30;54.40
80495;DHT22;69819;48.798;11.770;2023-05-18T03:42:11;8.10;53.90
80495;DHT22;69819;48.798;11.770;2023-05-18T03:44:37;8.20;54.00
80495;DHT22;69819;48.798;11.770;2023-05-18T03:47:02;8.20;54.00
80495;DHT22;69819;48.798;11.770;2023-05-18T03:49:28;8.20;54.00
80495;DHT22;69819;48.798;11.770;2023-05-18T03:51:55;8.20;54.00
80495;DHT22;69819;48.798;11.770;2023-05-18T03:54:21;8.30;54.80
80495;DHT22;69819;48.798;11.770;2023-05-18T03:56:48;8.30;54.70
80495;DHT22;69819;48.798;11.770;2023-05-18T03:59:14;8.50;55.70
80495;DHT22;69819;48.798;11.770;2023-05-18T04:01:39;8.60;55.30
80495;DHT22;69819;48.798;11.770;2023-05-18T04:04:07;8.70;55.30
80495;DHT22;69819;48.798;11.770;2023-05-18T04:06:33;9.00;55.20
80495;DHT22;69819;48.798;11.770;2023-05-18T04:09:00;9.30;55.00
80495;DHT22;69819;48.798;11.770;2023-05-18T04:11:30;9.60;54.70
80495;DHT22;69819;48.798;11.770;2023-05-18T04:13:56;9.90;54.50
80495;DHT22;69819;48.798;11.770;2023-05-18T04:16:23;10.30;53.20
80495;DHT22;69819;48.798;11.770;2023-05-18T04:18:49;10.60;52.90
80495;DHT22;69819;48.798;11.770;2023-05-18T04:21:14;11.00;52.70
80495;DHT22;69819;48.798;11.770;2023-05-18T04:23:40;11.40;52.50
80495;DHT22;69819;48.798;11.770;2023-05-18T04:26:07;11.80;52.30
80495;DHT22;69819;48.798;11.770;2023-05-18T04:28:33;12.30;51.80
80495;DHT22;69819;48.798;11.770;2023-05-18T04:31:01;12.70;51.40
80495;DHT22;69819;48.798;11.770;2023-05-18T04:33:28;13.20;50.80
80495;DHT22;69819;48.798;11.770;2023-05-18T04:35:54;13.60;50.10
80495;DHT22;69819;48.798;11.770;2023-05-18T04:38:20;14.00;49.40
80495;DHT22;69819;48.798;11.770;2023-05-18T04:40:49;14.40;49.20
80495;DHT22;69819;48.798;11.770;2023-05-18T04:43:16;14.80;48.70
80495;DHT22;69819;48.798;11.770;2023-05-18T04:45:43;15.20;47.90
80495;DHT22;69819;48.798;11.770;2023-05-18T04:48:15;15.50;47.10
80495;DHT22;69819;48.798;11.770;2023-05-18T04:50:42;15.80;46.20
80495;DHT22;69819;48.798;11.770;2023-05-18T04:53:08;16.00;46.10
80495;DHT22;69819;48.798;11.770;2023-05-18T04:55:36;16.30;46.30
80495;DHT22;69819;48.798;11.770;2023-05-18T04:58:02;16.70;46.40
80495;DHT22;69819;48.798;11.770;2023-05-18T05:00:29;17.20;46.30
80495;DHT22;69819;48.798;11.770;2023-05-18T05:02:56;17.70;45.80
80495;DHT22;69819;48.798;11.770;2023-05-18T05:05:23;18.30;45.40
80495;DHT22;69819;48.798;11.770;2023-05-18T05:07:51;18.90;44.70
80495;DHT22;69819;48.798;11.770;2023-05-18T05:10:21;19.50;44.30
80495;DHT22;69819;48.798;11.770;2023-05-18T05:12:49;20.10;43.30
80495;DHT22;69819;48.798;11.770;2023-05-18T05:15:15;20.70;43.20
80495;DHT22;69819;48.798;11.770;2023-05-18T05:17:41;21.20;42.50
80495;DHT22;69819;48.798;11.770;2023-05-18T05:20:08;21.70;42.10
80495;DHT22;69819;48.798;11.770;2023-05-18T05:22:34;22.20;41.40
80495;DHT22;69819;48.798;11.770;2023-05-18T05:25:00;22.70;40.80
80495;DHT22;69819;48.798;11.770;2023-05-18T05:27:25;23.20;40.30
80495;DHT22;69819;48.798;11.770;2023-05-18T05:29:51;23.60;40.20
80495;DHT22;69819;48.798;11.770;2023-05-18T05:32:17;24.10;39.40
80495;DHT22;69819;48.798;11.770;2023-05-18T05:34:43;24.60;38.70
80495;DHT22;69819;48.798;11.770;2023-05-18T05:37:11;25.00;38.20
80495;DHT22;69819;48.798;11.770;2023-05-18T05:39:37;25.40;37.30
80495;DHT22;69819;48.798;11.770;2023-05-18T05:42:05;25.80;37.00
80495;DHT22;69819;48.798;11.770;2023-05-18T05:44:31;26.10;36.10
80495;DHT22;69819;48.798;11.770;2023-05-18T05:46:57;26.40;35.80
80495;DHT22;69819;48.798;11.770;2023-05-18T05:49:23;26.80;35.60
80495;DHT22;69819;48.798;11.770;2023-05-18T05:51:49;27.10;35.00
80495;DHT22;69819;48.798;11.770;2023-05-18T05:54:14;27.40;34.70
80495;DHT22;69819;48.798;11.770;2023-05-18T05:56:40;27.70;34.00
80495;DHT22;69819;48.798;11.770;2023-05-18T05:59:06;28.00;33.70
80495;DHT22;69819;48.798;11.770;2023-05-18T06:01:32;28.30;33.10
80495;DHT22;69819;48.798;11.770;2023-05-18T06:03:59;28.50;32.30
80495;DHT22;69819;48.798;11.770;2023-05-18T06:06:26;28.60;32.00
80495;DHT22;69819;48.798;11.770;2023-05-18T06:08:52;28.80;31.50
80495;DHT22;69819;48.798;11.770;2023-05-18T06:11:18;28.90;31.20
80495;DHT22;69819;48.798;11.770;2023-05-18T06:13:44;29.00;30.80
80495;DHT22;69819;48.798;11.770;2023-05-18T06:16:10;29.00;30.70
80495;DHT22;69819;48.798;11.770;2023-05-18T06:18:35;29.10;30.30
80495;DHT22;69819;48.798;11.770;2023-05-18T06:21:01;29.20;30.00
80495;DHT22;69819;48.798;11.770;2023-05-18T06:23:27;29.40;30.00
80495;DHT22;69819;48.798;11.770;2023-05-18T06:25:53;29.40;29.80
80495;DHT22;69819;48.798;11.770;2023-05-18T06:28:19;29.50;29.60
80495;DHT22;69819;48.798;11.770;2023-05-18T06:30:44;29.60;29.20
80495;DHT22;69819;48.798;11.770;2023-05-18T06:33:10;29.50;29.00
80495;DHT22;69819;48.798;11.770;2023-05-18T06:35:36;29.60;29.10
80495;DHT22;69819;48.798;11.770;2023-05-18T06:38:02;29.60;28.80
80495;DHT22;69819;48.798;11.770;2023-05-18T06:40:28;29.70;28.70
80495;DHT22;69819;48.798;11.770;2023-05-18T06:42:53;29.70;28.60
80495;DHT22;69819;48.798;11.770;2023-05-18T06:45:19;29.80;28.90
80495;DHT22;69819;48.798;11.770;2023-05-18T06:47:45;29.90;28.30
80495;DHT22;69819;48.798;11.770;2023-05-18T06:50:11;29.90;28.40
80495;DHT22;69819;48.798;11.770;2023-05-18T06:52:37;29.90;28.10
80495;DHT22;69819;48.798;11.770;2023-05-18T06:55:03;30.00;28.20
80495;DHT22;69819;48.798;11.770;2023-05-18T06:57:29;30.00;28.00
80495;DHT22;69819;48.798;11.770;2023-05-18T06:59:56;30.10;28.10
80495;DHT22;69819;48.798;11.770;2023-05-18T07:02:22;30.20;28.20
80495;DHT22;69819;48.798;11.770;2023-05-18T07:04:48;30.40;27.90
80495;DHT22;69819;48.798;11.770;2023-05-18T07:07:14;30.50;27.60
80495;DHT22;69819;48.798;11.770;2023-05-18T07:09:43;30.60;27.90
80495;DHT22;69819;48.798;11.770;2023-05-18T07:12:11;30.70;27.50
80495;DHT22;69819;48.798;11.770;2023-05-18T07:14:37;30.80;27.70
80495;DHT22;69819;48.798;11.770;2023-05-18T07:17:03;31.10;27.40
80495;DHT22;69819;48.798;11.770;2023-05-18T07:19:31;31.30;27.20
80495;DHT22;69819;48.798;11.770;2023-05-18T07:21:58;31.50;27.20
80495;DHT22;69819;48.798;11.770;2023-05-18T07:24:24;31.70;26.90
80495;DHT22;69819;48.798;11.770;2023-05-18T07:26:50;31.90;26.40
80495;DHT22;69819;48.798;11.770;2023-05-18T07:29:16;32.00;26.40
80495;DHT22;69819;48.798;11.770;2023-05-18T07:31:41;32.10;26.30
80495;DHT22;69819;48.798;11.770;2023-05-18T07:34:07;32.20;26.10
80495;DHT22;69819;48.798;11.770;2023-05-18T07:36:33;32.30;25.70
80495;DHT22;69819;48.798;11.770;2023-05-18T07:38:59;32.40;25.90
80495;DHT22;69819;48.798;11.770;2023-05-18T07:41:25;32.40;25.40
80495;DHT22;69819;48.798;11.770;2023-05-18T07:43:52;32.50;25.40
80495;DHT22;69819;48.798;11.770;2023-05-18T07:46:18;32.50;25.30
80495;DHT22;69819;48.798;11.770;2023-05-18T07:48:44;32.60;25.40
80495;DHT22;69819;48.798;11.770;2023-05-18T07:51:11;32.70;25.50
80495;DHT22;69819;48.798;11.770;2023-05-18T07:53:37;32.90;25.40
80495;DHT22;69819;48.798;11.770;2023-05-18T07:56:05;33.10;25.00
80495;DHT22;69819;48.798;11.770;2023-05-18T07:58:34;33.20;24.70
80495;DHT22;69819;48.798;11.770;2023-05-18T08:01:00;33.20;24.30
80495;DHT22;69819;48.798;11.770;2023-05-18T08:03:27;33.10;24.20
80495;DHT22;69819;48.798;11.770;2023-05-18T08:05:52;33.10;24.50
80495;DHT22;69819;48.798;11.770;2023-05-18T08:08:18;33.10;24.50
80495;DHT22;69819;48.798;11.770;2023-05-18T08:10:44;33.20;24.50
80495;DHT22;69819;48.798;11.770;2023-05-18T08:13:10;33.30;23.90
80495;DHT22;69819;48.798;11.770;2023-05-18T08:15:38;33.30;24.00
80495;DHT22;69819;48.798;11.770;2023-05-18T08:18:05;33.40;23.80
80495;DHT22;69819;48.798;11.770;2023-05-18T08:20:31;33.40;23.60
80495;DHT22;69819;48.798;11.770;2023-05-18T08:22:56;33.50;23.60
80495;DHT22;69819;48.798;11.770;2023-05-18T08:25:23;33.50;23.60
80495;DHT22;69819;48.798;11.770;2023-05-18T08:27:49;33.60;23.60
80495;DHT22;69819;48.798;11.770;2023-05-18T08:30:15;33.60;22.90
80495;DHT22;69819;48.798;11.770;2023-05-18T08:32:44;33.60;23.20
80495;DHT22;69819;48.798;11.770;2023-05-18T08:35:10;33.60;23.00
80495;DHT22;69819;48.798;11.770;2023-05-18T08:37:36;33.50;22.80
80495;DHT22;69819;48.798;11.770;2023-05-18T08:40:03;33.50;22.90
80495;DHT22;69819;48.798;11.770;2023-05-18T08:43:00;33.40;22.80
80495;DHT22;69819;48.798;11.770;2023-05-18T08:48:07;33.20;22.40
80495;DHT22;69819;48.798;11.770;2023-05-18T08:50:37;32.90;22.20
80495;DHT22;69819;48.798;11.770;2023-05-18T08:53:05;32.50;22.00
80495;DHT22;69819;48.798;11.770;2023-05-18T08:55:32;32.10;22.40
80495;DHT22;69819;48.798;11.770;2023-05-18T08:58:03;31.80;22.40
80495;DHT22;69819;48.798;11.770;2023-05-18T09:00:31;31.60;22.60
80495;DHT22;69819;48.798;11.770;2023-05-18T09:02:58;31.50;22.80
80495;DHT22;69819;48.798;11.770;2023-05-18T09:05:24;31.50;23.30
80495;DHT22;69819;48.798;11.770;2023-05-18T09:07:50;31.60;22.90
80495;DHT22;69819;48.798;11.770;2023-05-18T09:10:17;31.60;23.30
80495;DHT22;69819;48.798;11.770;2023-05-18T09:12:44;31.60;22.80
80495;DHT22;69819;48.798;11.770;2023-05-18T09:15:15;31.60;22.90
80495;DHT22;69819;48.798;11.770;2023-05-18T09:17:42;31.70;22.60
80495;DHT22;69819;48.798;11.770;2023-05-18T09:20:08;31.60;22.70
80495;DHT22;69819;48.798;11.770;2023-05-18T09:22:34;31.60;22.70
80495;DHT22;69819;48.798;11.770;2023-05-18T09:25:06;31.60;23.10
80495;DHT22;69819;48.798;11.770;2023-05-18T09:27:33;31.60;22.70
80495;DHT22;69819;48.798;11.770;2023-05-18T09:29:59;31.60;22.50
80495;DHT22;69819;48.798;11.770;2023-05-18T09:32:25;31.70;22.80
80495;DHT22;69819;48.798;11.770;2023-05-18T09:34:52;31.90;22.60
80495;DHT22;69819;48.798;11.770;2023-05-18T09:37:19;32.00;22.20
80495;DHT22;69819;48.798;11.770;2023-05-18T09:40:12;31.90;21.90
80495;DHT22;69819;48.798;11.770;2023-05-18T09:42:43;31.70;21.60
80495;DHT22;69819;48.798;11.770;2023-05-18T09:45:17;31.40;21.70
80495;DHT22;69819;48.798;11.770;2023-05-18T09:47:44;31.10;21.80
80495;DHT22;69819;48.798;11.770;2023-05-18T09:50:10;30.80;22.80
80495;DHT22;69819;48.798;11.770;2023-05-18T09:52:43;30.30;22.20
80495;DHT22;69819;48.798;11.770;2023-05-18T09:55:10;29.90;22.20
80495;DHT22;69819;48.798;11.770;2023-05-18T09:57:39;29.60;22.90
80495;DHT22;69819;48.798;11.770;2023-05-18T10:00:08;29.40;22.90
80495;DHT22;69819;48.798;11.770;2023-05-18T10:07:52;29.50;23.80
80495;DHT22;69819;48.798;11.770;2023-05-18T10:10:21;29.50;23.60
80495;DHT22;69819;48.798;11.770;2023-05-18T10:12:50;29.70;23.70
80495;DHT22;69819;48.798;11.770;2023-05-18T10:15:19;29.70;23.90
80495;DHT22;69819;48.798;11.770;2023-05-18T10:17:47;29.70;23.20
80495;DHT22;69819;48.798;11.770;2023-05-18T10:20:17;29.60;23.00
80495;DHT22;69819;48.798;11.770;2023-05-18T10:22:46;29.40;23.00
80495;DHT22;69819;48.798;11.770;2023-05-18T10:25:21;29.00;22.80
80495;DHT22;69819;48.798;11.770;2023-05-18T10:27:49;28.50;22.80
80495;DHT22;69819;48.798;11.770;2023-05-18T10:30:20;28.10;23.10
80495;DHT22;69819;48.798;11.770;2023-05-18T10:32:47;27.50;23.50
80495;DHT22;69819;48.798;11.770;2023-05-18T10:35:13;27.10;23.80
80495;DHT22;69819;48.798;11.770;2023-05-18T10:37:44;26.70;23.90
80495;DHT22;69819;48.798;11.770;2023-05-18T10:40:16;26.40;24.40
80495;DHT22;69819;48.798;11.770;2023-05-18T10:42:44;26.10;24.70
80495;DHT22;69819;48.798;11.770;2023-05-18T10:45:11;25.90;24.90
80495;DHT22;69819;48.798;11.770;2023-05-18T10:47:38;25.70;25.10
80495;DHT22;69819;48.798;11.770;2023-05-18T10:50:08;25.60;25.10
80495;DHT22;69819;48.798;11.770;2023-05-18T10:52:36;25.40;25.20
80495;DHT22;69819;48.798;11.770;2023-05-18T10:55:02;25.10;25.40
80495;DHT22;69819;48.798;11.770;2023-05-18T10:57:38;24.90;25.50
80495;DHT22;69819;48.798;11.770;2023-05-18T11:00:09;24.60;26.00
80495;DHT22;69819;48.798;11.770;2023-05-18T11:02:37;24.40;26.00
80495;DHT22;69819;48.798;11.770;2023-05-18T11:05:07;24.20;26.20
80495;DHT22;69819;48.798;11.770;2023-05-18T11:07:34;24.00;26.50
80495;DHT22;69819;48.798;11.770;2023-05-18T11:10:02;23.90;26.70
80495;DHT22;69819;48.798;11.770;2023-05-18T11:12:36;23.90;26.70
80495;DHT22;69819;48.798;11.770;2023-05-18T11:15:04;23.70;26.90
80495;DHT22;69819;48.798;11.770;2023-05-18T11:17:31;23.70;26.70
80495;DHT22;69819;48.798;11.770;2023-05-18T11:22:43;23.50;26.80
80495;DHT22;69819;48.798;11.770;2023-05-18T11:28:08;23.40;26.80
80495;DHT22;69819;48.798;11.770;2023-05-18T11:41:34;23.50;27.20
80495;DHT22;69819;48.798;11.770;2023-05-18T11:44:22;23.50;27.20
80495;DHT22;69819;48.798;11.770;2023-05-18T11:47:02;23.50;27.10
80495;DHT22;69819;48.798;11.770;2023-05-18T11:54:39;23.50;27.70
80495;DHT22;69819;48.798;11.770;2023-05-18T11:57:15;23.50;27.40
80495;DHT22;69819;48.798;11.770;2023-05-18T11:59:44;23.40;27.70
80495;DHT22;69819;48.798;11.770;2023-05-18T12:02:21;23.40;27.70
80495;DHT22;69819;48.798;11.770;2023-05-18T12:04:54;23.30;27.60
80495;DHT22;69819;48.798;11.770;2023-05-18T12:07:22;23.30;28.00
80495;DHT22;69819;48.798;11.770;2023-05-18T12:10:00;23.30;28.10
80495;DHT22;69819;48.798;11.770;2023-05-18T12:12:32;23.40;28.30
80495;DHT22;69819;48.798;11.770;2023-05-18T12:15:03;23.50;28.20
80495;DHT22;69819;48.798;11.770;2023-05-18T12:17:47;23.60;28.10
80495;DHT22;69819;48.798;11.770;2023-05-18T12:20:22;23.80;28.10
80495;DHT22;69819;48.798;11.770;2023-05-18T12:22:54;23.80;27.80
80495;DHT22;69819;48.798;11.770;2023-05-18T12:25:22;23.90;27.90
80495;DHT22;69819;48.798;11.770;2023-05-18T12:27:51;23.80;27.90
80495;DHT22;69819;48.798;11.770;2023-05-18T12:30:25;23.90;27.70
80495;DHT22;69819;48.798;11.770;2023-05-18T12:32:59;23.80;27.80
80495;DHT22;69819;48.798;11.770;2023-05-18T12:35:29;23.80;27.90
80495;DHT22;69819;48.798;11.770;2023-05-18T12:37:57;23.80;27.90
80495;DHT22;69819;48.798;11.770;2023-05-18T12:40:27;23.80;27.90
80495;DHT22;69819;48.798;11.770;2023-05-18T12:43:02;23.80;28.00
80495;DHT22;69819;48.798;11.770;2023-05-18T12:45:31;23.80;28.00
80495;DHT22;69819;48.798;11.770;2023-05-18T12:50:34;23.70;27.50
80495;DHT22;69819;48.798;11.770;2023-05-18T12:53:01;23.60;27.70
80495;DHT22;69819;48.798;11.770;2023-05-18T12:55:28;23.50;27.70
80495;DHT22;69819;48.798;11.770;2023-05-18T12:58:03;23.40;27.80
80495;DHT22;69819;48.798;11.770;2023-05-18T13:00:42;23.30;28.00
80495;DHT22;69819;48.798;11.770;2023-05-18T13:03:12;23.20;28.30
80495;DHT22;69819;48.798;11.770;2023-05-18T13:05:42;23.30;28.80
80495;DHT22;69819;48.798;11.770;2023-05-18T13:08:15;23.30;29.10
80495;DHT22;69819;48.798;11.770;2023-05-18T13:10:46;23.40;28.80
80495;DHT22;69819;48.798;11.770;2023-05-18T13:13:15;23.50;28.60
80495;DHT22;69819;48.798;11.770;2023-05-18T13:15:42;23.50;29.10
80495;DHT22;69819;48.798;11.770;2023-05-18T13:18:09;23.60;28.60
80495;DHT22;69819;48.798;11.770;2023-05-18T13:20:40;23.60;28.70
80495;DHT22;69819;48.798;11.770;2023-05-18T13:23:10;23.60;28.30
80495;DHT22;69819;48.798;11.770;2023-05-18T13:25:38;23.50;28.20
80495;DHT22;69819;48.798;11.770;2023-05-18T13:28:05;23.50;28.10
80495;DHT22;69819;48.798;11.770;2023-05-18T13:30:32;23.40;28.30
80495;DHT22;69819;48.798;11.770;2023-05-18T13:32:58;23.40;28.30
80495;DHT22;69819;48.798;11.770;2023-05-18T13:35:25;23.40;29.00
80495;DHT22;69819;48.798;11.770;2023-05-18T13:37:51;23.40;28.60
80495;DHT22;69819;48.798;11.770;2023-05-18T13:40:18;23.50;29.00
80495;DHT22;69819;48.798;11.770;2023-05-18T13:42:45;23.50;29.00
80495;DHT22;69819;48.798;11.770;2023-05-18T13:45:12;23.60;29.10
80495;DHT22;69819;48.798;11.770;2023-05-18T13:47:39;23.60;28.90
80495;DHT22;69819;48.798;11.770;2023-05-18T13:50:06;23.70;28.80
80495;DHT22;69819;48.798;11.770;2023-05-18T13:52:34;23.80;28.80
80495;DHT22;69819;48.798;11.770;2023-05-18T13:55:01;23.90;28.90
80495;DHT22;69819;48.798;11.770;2023-05-18T13:57:29;24.00;29.20
80495;DHT22;69819;48.798;11.770;2023-05-18T13:59:56;24.00;29.00
80495;DHT22;69819;48.798;11.770;2023-05-18T14:02:24;24.10;29.00
80495;DHT22;69819;48.798;11.770;2023-05-18T14:04:50;24.20;28.80
80495;DHT22;69819;48.798;11.770;2023-05-18T14:07:17;24.30;28.80
80495;DHT22;69819;48.798;11.770;2023-05-18T14:09:43;24.40;28.80
80495;DHT22;69819;48.798;11.770;2023-05-18T14:12:09;24.40;28.50
80495;DHT22;69819;48.798;11.770;2023-05-18T14:14:36;24.30;28.50
80495;DHT22;69819;48.798;11.770;2023-05-18T14:17:02;24.20;28.30
80495;DHT22;69819;48.798;11.770;2023-05-18T14:19:28;24.10;28.50
80495;DHT22;69819;48.798;11.770;2023-05-18T14:21:53;23.90;28.80
80495;DHT22;69819;48.798;11.770;2023-05-18T14:24:19;23.80;28.80
80495;DHT22;69819;48.798;11.770;2023-05-18T14:26:45;23.60;28.90
80495;DHT22;69819;48.798;11.770;2023-05-18T14:29:10;23.50;28.90
80495;DHT22;69819;48.798;11.770;2023-05-18T14:31:36;23.30;29.00
80495;DHT22;69819;48.798;11.770;2023-05-18T14:34:02;23.20;29.20
80495;DHT22;69819;48.798;11.770;2023-05-18T14:36:28;23.10;29.30
80495;DHT22;69819;48.798;11.770;2023-05-18T14:38:53;23.00;29.60
80495;DHT22;69819;48.798;11.770;2023-05-18T14:41:19;22.90;29.60
80495;DHT22;69819;48.798;11.770;2023-05-18T14:43:46;22.90;29.70
80495;DHT22;69819;48.798;11.770;2023-05-18T14:46:12;22.90;29.70
80495;DHT22;69819;48.798;11.770;2023-05-18T14:48:38;22.90;29.70
80495;DHT22;69819;48.798;11.770;2023-05-18T14:51:04;22.80;29.70
80495;DHT22;69819;48.798;11.770;2023-05-18T14:53:30;22.90;29.70
80495;DHT22;69819;48.798;11.770;2023-05-18T14:55:55;22.90;29.70
80495;DHT22;69819;48.798;11.770;2023-05-18T14:58:21;22.80;29.70
80495;DHT22;69819;48.798;11.770;2023-05-18T15:00:47;22.90;29.70
80495;DHT22;69819;48.798;11.770;2023-05-18T15:03:13;22.90;29.70
80495;DHT22;69819;48.798;11.770;2023-05-18T15:05:38;22.90;29.80
80495;DHT22;69819;48.798;11.770;2023-05-18T15:08:04;22.80;29.70
80495;DHT22;69819;48.798;11.770;2023-05-18T15:10:30;22.80;29.70
80495;DHT22;69819;48.798;11.770;2023-05-18T15:12:56;22.70;29.90
80495;DHT22;69819;48.798;11.770;2023-05-18T15:15:22;22.60;29.80
80495;DHT22;69819;48.798;11.770;2023-05-18T15:17:47;22.60;29.80
80495;DHT22;69819;48.798;11.770;2023-05-18T15:20:13;22.50;30.00
80495;DHT22;69819;48.798;11.770;2023-05-18T15:22:39;22.50;30.50
80495;DHT22;69819;48.798;11.770;2023-05-18T15:25:06;22.40;30.00
80495;DHT22;69819;48.798;11.770;2023-05-18T15:27:33;22.30;30.20
80495;DHT22;69819;48.798;11.770;2023-05-18T15:30:00;22.30;30.30
80495;DHT22;69819;48.798;11.770;2023-05-18T15:32:26;22.20;30.30
80495;DHT22;69819;48.798;11.770;2023-05-18T15:34:51;22.10;30.40
80495;DHT22;69819;48.798;11.770;2023-05-18T15:37:18;22.10;30.60
80495;DHT22;69819;48.798;11.770;2023-05-18T15:39:44;22.10;30.80
80495;DHT22;69819;48.798;11.770;2023-05-18T15:42:10;22.10;30.60
80495;DHT22;69819;48.798;11.770;2023-05-18T15:44:35;22.10;30.50
80495;DHT22;69819;48.798;11.770;2023-05-18T15:47:03;22.10;30.50
80495;DHT22;69819;48.798;11.770;2023-05-18T15:49:29;22.10;30.30
80495;DHT22;69819;48.798;11.770;2023-05-18T15:51:55;22.10;30.40
80495;DHT22;69819;48.798;11.770;2023-05-18T15:54:20;22.20;30.90
80495;DHT22;69819;48.798;11.770;2023-05-18T15:56:46;22.20;31.70
80495;DHT22;69819;48.798;11.770;2023-05-18T15:59:12;22.20;30.80
80495;DHT22;69819;48.798;11.770;2023-05-18T16:01:38;22.20;30.70
80495;DHT22;69819;48.798;11.770;2023-05-18T16:04:04;22.20;30.70
80495;DHT22;69819;48.798;11.770;2023-05-18T16:06:29;22.10;30.70
80495;DHT22;69819;48.798;11.770;2023-05-18T16:08:56;22.10;30.80